Time;durP1;ratioP1;P1;durP2;ratioP2;P2;SDS_P1;SDS_P2;PMS_P1;PMS_P2;Temp;Humidity;BMP_temperature;BMP_pressure;BME280_temperature;BME280_humidity;BME280_pressure;Samples;Min_cycle;Max_cycle;Signal;HPM_P1;HPM_P2
2021/03/21 00:01:04;;;;;;;;;;;;;;;-0.71;77.05;100369.41;1738643;81;22065;-71
2021/03/21 00:03:34;;;;;;;;;;;;;;;-0.72;77.06;100362.97;1739010;81;20364;-73
2021/03/21 00:06:02;;;;;;;;;;;;;;;-0.76;77.07;100363.53;1743742;81;20244;-72
2021/03/21 00:08:31;;;;;;;;;;;;;;;-0.81;77.11;100361.53;1738706;81;20838;-72
2021/03/21 00:11:04;;;;;;;;;;;;;;;-0.83;77.16;100362.03;1725478;82;20223;-71
2021/03/21 00:13:31;;;;;;;;;;;;;;;-0.85;77.19;100352.62;1732812;81;22022;-72
2021/03/21 00:15:58;;;;;;;;;;;;;;;-0.85;77.21;100351.32;1726080;81;20255;-71
2021/03/21 00:18:29;;;;;;;;;;;;;;;-0.86;77.20;100346.59;1738908;81;20511;-71
2021/03/21 00:20:56;;;;;;;;;;;;;;;-0.87;77.23;100347.04;1741395;81;21168;-70
2021/03/21 00:23:23;;;;;;;;;;;;;;;-0.85;77.22;100347.44;1707761;81;20218;-71
2021/03/21 00:25:50;;;;;;;;;;;;;;;-0.87;77.24;100346.16;1752172;81;23370;-72
2021/03/21 00:28:20;;;;;;;;;;;;;;;-0.86;77.23;100359.55;1739351;81;20353;-71
2021/03/21 00:30:48;;;;;;;;;;;;;;;-0.88;77.24;100354.84;1733433;81;20223;-72
2021/03/21 00:33:17;;;;;;;;;;;;;;;-0.89;77.22;100353.15;1744025;81;21346;-71
2021/03/21 00:35:45;;;;;;;;;;;;;;;-0.90;77.19;100351.45;1737820;81;20228;-72
2021/03/21 00:38:21;;;;;;;;;;;;;;;-0.92;77.20;100345.48;1731971;81;22495;-72
2021/03/21 00:40:49;;;;;;;;;;;;;;;-0.93;77.19;100348.97;1752248;81;20272;-71
2021/03/21 00:43:16;;;;;;;;;;;;;;;-0.97;77.21;100351.25;1750036;81;20498;-72
2021/03/21 00:45:44;;;;;;;;;;;;;;;-1.02;77.23;100357.89;1752934;81;20368;-72
2021/03/21 00:48:17;;;;;;;;;;;;;;;-1.03;77.27;100352.77;1737835;81;20148;-72
2021/03/21 00:50:45;;;;;;;;;;;;;;;-1.07;77.28;100361.06;1750985;81;22959;-72
2021/03/21 00:53:13;;;;;;;;;;;;;;;-1.07;77.28;100351.15;1752500;81;20724;-72
2021/03/21 00:55:41;;;;;;;;;;;;;;;-1.09;77.26;100353.80;1748308;81;20237;-72
2021/03/21 00:58:09;;;;;;;;;;;;;;;-1.10;77.26;100351.25;1730292;81;20578;-73
2021/03/21 01:00:39;;;;;;;;;;;;;;;-1.12;77.26;100351.31;1752856;81;20224;-72
2021/03/21 01:03:06;;;;;;;;;;;;;;;-1.13;77.27;100347.03;1755354;81;22134;-72
2021/03/21 01:05:43;;;;;;;;;;;;;;;-1.14;77.22;100345.78;1751891;81;20296;-73
2021/03/21 01:08:29;;;;;;;;;;;;;;;-1.15;77.22;100348.83;1737994;81;20217;-73
2021/03/21 01:11:02;;;;;;;;;;;;;;;-1.16;77.14;100341.92;1726039;81;20896;-72
2021/03/21 01:13:29;;;;;;;;;;;;;;;-1.17;77.17;100347.55;1717370;83;20306;-72
2021/03/21 01:15:56;;;;;;;;;;;;;;;-1.19;77.09;100341.58;1728276;81;21092;-72
2021/03/21 01:18:27;;;;;;;;;;;;;;;-1.23;77.08;100339.99;1724151;83;20661;-72
2021/03/21 01:20:54;;;;;;;;;;;;;;;-1.25;77.07;100335.77;1731423;81;20268;-72
2021/03/21 01:23:21;;;;;;;;;;;;;;;-1.28;77.06;100339.27;1718675;81;20788;-72
2021/03/21 01:25:48;;;;;;;;;;;;;;;-1.30;77.01;100338.48;1750455;81;20228;-72
2021/03/21 01:28:23;;;;;;;;;;;;;;;-1.32;76.96;100329.91;1754101;81;21737;-71
2021/03/21 01:30:51;;;;;;;;;;;;;;;-1.33;76.98;100332.11;1748696;81;20273;-71
2021/03/21 01:33:18;;;;;;;;;;;;;;;-1.37;76.98;100329.20;1754362;81;20241;-71
2021/03/21 01:35:47;;;;;;;;;;;;;;;-1.40;76.99;100326.70;1755045;81;20451;-73
2021/03/21 01:38:15;;;;;;;;;;;;;;;-1.42;77.02;100329.80;1747263;81;20231;-72
2021/03/21 01:40:43;;;;;;;;;;;;;;;-1.42;77.00;100336.73;1743412;81;23395;-72
2021/03/21 01:43:15;;;;;;;;;;;;;;;-1.44;77.01;100332.89;1744396;80;20264;-71
2021/03/21 01:45:46;;;;;;;;;;;;;;;-1.46;77.01;100332.91;1750876;81;20824;-71
2021/03/21 01:48:36;;;;;;;;;;;;;;;-1.49;77.00;100325.25;1752624;81;20458;-72
2021/03/21 01:51:07;;;;;;;;;;;;;;;-1.51;77.00;100330.08;1728602;80;20477;-72
2021/03/21 01:53:36;;;;;;;;;;;;;;;-1.53;77.02;100323.66;1755130;81;23095;-73
2021/03/21 01:56:04;;;;;;;;;;;;;;;-1.56;77.03;100324.18;1723739;81;20359;-72
2021/03/21 01:58:32;;;;;;;;;;;;;;;-1.56;77.05;100326.77;1752570;81;20244;-72
2021/03/21 02:01:00;;;;;;;;;;;;;;;-1.57;77.09;100324.63;1745588;81;20540;-72
2021/03/21 02:03:28;;;;;;;;;;;;;;;-1.57;77.13;100323.33;1754878;81;20256;-72
2021/03/21 02:06:13;;;;;;;;;;;;;;;-1.58;77.22;100320.34;1726038;81;22812;-73
2021/03/21 02:08:52;;;;;;;;;;;;;;;-1.59;77.23;100319.95;1652510;81;20259;-72
2021/03/21 02:11:52;;;;;;;;;;;;;;;-1.57;77.30;100318.61;1746538;81;20499;-72
2021/03/21 02:14:25;;;;;;;;;;;;;;;-1.54;77.34;100317.23;1697453;83;20912;-71
2021/03/21 02:17:25;;;;;;;;;;;;;;;-1.52;77.31;100315.44;1695402;83;20272;-72
2021/03/21 02:20:22;;;;;;;;;;;;;;;-1.51;77.31;100306.32;1742638;81;22068;-73
2021/03/21 02:23:10;;;;;;;;;;;;;;;-1.48;77.32;100310.55;1748569;81;20217;-71
2021/03/21 02:25:54;;;;;;;;;;;;;;;-1.48;77.30;100310.10;1737629;81;20288;-73
2021/03/21 02:28:47;;;;;;;;;;;;;;;-1.48;77.29;100311.39;1737100;81;20918;-72
2021/03/21 02:31:17;;;;;;;;;;;;;;;-1.49;77.21;100307.56;1725065;81;20278;-72
2021/03/21 02:34:01;;;;;;;;;;;;;;;-1.47;77.20;100309.66;1741880;81;21785;-72
2021/03/21 02:36:30;;;;;;;;;;;;;;;-1.48;77.21;100307.52;1746600;81;20348;-72
2021/03/21 02:39:00;;;;;;;;;;;;;;;-1.45;77.17;100310.03;1727942;81;20266;-72
2021/03/21 02:41:48;;;;;;;;;;;;;;;-1.42;77.12;100309.52;1747953;81;20308;-72
2021/03/21 02:44:25;;;;;;;;;;;;;;;-1.41;77.10;100308.18;1734771;81;20217;-71
2021/03/21 02:46:59;;;;;;;;;;;;;;;-1.41;76.94;100308.18;1754905;81;22072;-73
2021/03/21 02:49:35;;;;;;;;;;;;;;;-1.40;76.93;100302.09;1744343;81;20443;-72
2021/03/21 02:52:07;;;;;;;;;;;;;;;-1.38;76.92;100310.66;1737331;81;20385;-72
2021/03/21 02:54:41;;;;;;;;;;;;;;;-1.38;76.89;100315.84;1744693;81;20423;-72
2021/03/21 02:57:11;;;;;;;;;;;;;;;-1.38;76.70;100318.44;1754731;81;20216;-72
2021/03/21 02:59:41;;;;;;;;;;;;;;;-1.38;76.66;100319.73;1740218;81;21899;-72
2021/03/21 03:02:11;;;;;;;;;;;;;;;-1.36;76.65;100314.05;1739999;81;20238;-72
2021/03/21 03:04:41;;;;;;;;;;;;;;;-1.34;76.60;100317.91;1745596;81;20241;-72
2021/03/21 03:07:15;;;;;;;;;;;;;;;-1.36;76.57;100315.34;1755478;81;20981;-72
2021/03/21 03:09:45;;;;;;;;;;;;;;;-1.35;76.56;100315.77;1749134;81;20215;-72
2021/03/21 03:12:21;;;;;;;;;;;;;;;-1.37;76.55;100316.69;1726247;81;22139;-72
2021/03/21 03:14:48;;;;;;;;;;;;;;;-1.41;76.56;100319.84;1750527;81;20791;-72
2021/03/21 03:17:32;;;;;;;;;;;;;;;-1.46;76.57;100314.78;1753313;81;20210;-72
2021/03/21 03:20:06;;;;;;;;;;;;;;;-1.47;76.61;100313.53;1742073;81;21396;-71
2021/03/21 03:22:43;;;;;;;;;;;;;;;-1.49;76.61;100313.59;1730124;80;20239;-73
2021/03/21 03:25:33;;;;;;;;;;;;;;;-1.54;76.62;100311.61;1717415;83;22500;-72
2021/03/21 03:28:25;;;;;;;;;;;;;;;-1.58;76.65;100313.88;1717536;81;20575;-71
2021/03/21 03:31:28;;;;;;;;;;;;;;;-1.59;76.69;100311.34;1727738;81;20219;-72
2021/03/21 03:33:55;;;;;;;;;;;;;;;-1.62;76.69;100310.98;1742761;81;20924;-71
2021/03/21 03:36:22;;;;;;;;;;;;;;;-1.66;76.71;100312.41;1747223;81;20192;-71
2021/03/21 03:38:51;;;;;;;;;;;;;;;-1.72;76.76;100308.73;1736387;81;22570;-72
2021/03/21 03:41:34;;;;;;;;;;;;;;;-1.77;76.80;100314.87;1727192;81;20212;-72
2021/03/21 03:44:21;;;;;;;;;;;;;;;-1.79;76.82;100314.52;1739666;81;20220;-71
2021/03/21 03:46:58;;;;;;;;;;;;;;;-1.84;76.88;100314.64;1740101;81;20474;-72
2021/03/21 03:49:32;;;;;;;;;;;;;;;-1.87;76.97;100308.72;1722661;81;20299;-71
2021/03/21 03:52:09;;;;;;;;;;;;;;;-1.87;77.00;100314.75;1740733;81;22970;-72
2021/03/21 03:54:42;;;;;;;;;;;;;;;-1.91;77.03;100318.33;1747712;81;21726;-71
2021/03/21 03:57:23;;;;;;;;;;;;;;;-1.94;77.12;100309.34;1753438;81;20229;-75
2021/03/21 04:00:19;;;;;;;;;;;;;;;-1.95;77.19;100307.65;1728072;81;20476;-70
2021/03/21 04:02:53;;;;;;;;;;;;;;;-1.96;77.21;100314.16;1738422;81;20255;-72
2021/03/21 04:05:40;;;;;;;;;;;;;;;-1.99;77.29;100311.23;1726443;81;21893;-72
2021/03/21 04:08:15;;;;;;;;;;;;;;;-2.01;77.35;100313.02;1752067;81;20328;-72
2021/03/21 04:10:48;;;;;;;;;;;;;;;-2.04;77.40;100313.09;1751113;81;20225;-72
2021/03/21 04:13:20;;;;;;;;;;;;;;;-2.07;77.54;100308.01;1741596;81;20916;-72
2021/03/21 04:15:49;;;;;;;;;;;;;;;-2.08;77.56;100310.20;1740600;81;20235;-72
2021/03/21 04:18:26;;;;;;;;;;;;;;;-2.09;77.66;100307.21;1737149;81;22975;-72
2021/03/21 04:21:00;;;;;;;;;;;;;;;-2.10;77.69;100310.70;1753570;81;20801;-72
2021/03/21 04:23:48;;;;;;;;;;;;;;;-2.11;77.75;100315.47;1730288;81;20231;-71
2021/03/21 04:26:17;;;;;;;;;;;;;;;-2.13;77.82;100307.73;1754595;80;20441;-71
2021/03/21 04:28:48;;;;;;;;;;;;;;;-2.15;77.86;100306.93;1744641;81;20404;-71
2021/03/21 04:31:15;;;;;;;;;;;;;;;-2.15;77.95;100306.93;1739959;81;22907;-71
2021/03/21 04:33:45;;;;;;;;;;;;;;;-2.16;78.02;100306.53;1754787;81;20656;-72
2021/03/21 04:36:21;;;;;;;;;;;;;;;-2.15;78.06;100306.08;1750168;81;20250;-72
2021/03/21 04:38:57;;;;;;;;;;;;;;;-2.14;78.14;100298.27;1740583;81;21457;-71
2021/03/21 04:41:32;;;;;;;;;;;;;;;-2.13;78.27;100292.65;1753349;81;20229;-71
2021/03/21 04:44:06;;;;;;;;;;;;;;;-2.10;78.38;100304.23;1724758;81;22073;-71
2021/03/21 04:46:39;;;;;;;;;;;;;;;-2.08;78.40;100296.81;1754428;81;21340;-72
2021/03/21 04:49:06;;;;;;;;;;;;;;;-2.03;78.43;100299.25;1741184;81;20227;-72
2021/03/21 04:51:36;;;;;;;;;;;;;;;-2.00;78.45;100301.77;1724297;81;20888;-73
2021/03/21 04:54:07;;;;;;;;;;;;;;;-1.97;78.47;100300.38;1735054;81;20243;-72
2021/03/21 04:56:49;;;;;;;;;;;;;;;-1.94;78.49;100305.45;1725496;81;22787;-72
2021/03/21 04:59:25;;;;;;;;;;;;;;;-1.91;78.50;100302.80;1747264;81;20370;-72
2021/03/21 05:02:12;;;;;;;;;;;;;;;-1.88;78.50;100301.85;1751147;81;20220;-72
2021/03/21 05:04:49;;;;;;;;;;;;;;;-1.85;78.50;100301.30;1755512;81;21753;-72
2021/03/21 05:07:32;;;;;;;;;;;;;;;-1.81;78.47;100305.52;1754024;81;20264;-72
2021/03/21 05:10:05;;;;;;;;;;;;;;;-1.76;78.46;100303.62;1735755;81;21914;-72
2021/03/21 05:12:36;;;;;;;;;;;;;;;-1.71;78.40;100303.50;1725347;82;20364;-72
2021/03/21 05:15:10;;;;;;;;;;;;;;;-1.66;78.31;100307.23;1743403;81;20221;-73
2021/03/21 05:17:49;;;;;;;;;;;;;;;-1.64;78.26;100307.61;1727091;81;20917;-72
2021/03/21 05:20:35;;;;;;;;;;;;;;;-1.60;78.19;100305.76;1737331;81;20284;-73
2021/03/21 05:23:06;;;;;;;;;;;;;;;-1.56;78.10;100306.90;1735482;81;22158;-71
2021/03/21 05:25:41;;;;;;;;;;;;;;;-1.49;77.98;100302.39;1705113;81;20236;-72
2021/03/21 05:28:37;;;;;;;;;;;;;;;-1.42;77.83;100307.78;1738451;81;20215;-71
2021/03/21 05:31:04;;;;;;;;;;;;;;;-1.36;77.75;100304.13;1741048;81;20451;-72
2021/03/21 05:33:31;;;;;;;;;;;;;;;-1.31;77.50;100308.28;1751949;81;20280;-72
2021/03/21 05:35:59;;;;;;;;;;;;;;;-1.27;77.40;100302.09;1737807;81;22511;-72
2021/03/21 05:38:45;;;;;;;;;;;;;;;-1.22;77.05;100302.81;1737024;81;20363;-72
2021/03/21 05:41:45;;;;;;;;;;;;;;;-1.18;76.81;100306.14;1737453;81;20244;-72
2021/03/21 05:44:25;;;;;;;;;;;;;;;-1.12;76.64;100293.45;1728797;81;20908;-71
2021/03/21 05:47:00;;;;;;;;;;;;;;;-1.05;76.12;100301.42;1743819;81;20237;-71
2021/03/21 05:49:59;;;;;;;;;;;;;;;-0.99;76.19;100303.80;1737386;81;21146;-72
2021/03/21 05:52:30;;;;;;;;;;;;;;;-0.93;75.81;100303.60;1722386;80;20244;-72
2021/03/21 05:55:21;;;;;;;;;;;;;;;-0.88;75.43;100293.91;1736739;81;20254;-72
2021/03/21 05:58:18;;;;;;;;;;;;;;;-0.82;75.34;100296.30;1742944;81;20472;-73
2021/03/21 06:01:08;;;;;;;;;;;;;;;-0.75;75.15;100298.25;1730472;81;20215;-72
2021/03/21 06:04:13;;;;;;;;;;;;;;;-0.66;74.89;100293.59;1747328;81;23051;-72
2021/03/21 06:06:59;;;;;;;;;;;;;;;-0.60;74.41;100293.81;1748883;81;20808;-72
2021/03/21 06:09:44;;;;;;;;;;;;;;;-0.57;73.45;100295.02;1744453;81;20276;-72
2021/03/21 06:12:37;;;;;;;;;;;;;;;-0.51;73.37;100296.09;1729708;81;20893;-72
2021/03/21 06:15:20;;;;;;;;;;;;;;;-0.43;73.17;100294.52;1718338;82;20274;-73
2021/03/21 06:18:09;;;;;;;;;;;;;;;-0.34;73.17;100295.50;1717443;83;23390;-73
2021/03/21 06:20:52;;;;;;;;;;;;;;;-0.25;72.78;100291.27;1729868;82;20666;-72
2021/03/21 06:23:43;;;;;;;;;;;;;;;-0.19;72.38;100291.06;1740622;82;20214;-72
2021/03/21 06:26:35;;;;;;;;;;;;;;;-0.14;71.87;100290.42;1729544;82;20729;-72
2021/03/21 06:29:32;;;;;;;;;;;;;;;-0.10;71.21;100290.70;1737191;82;20226;-72
2021/03/21 06:32:36;;;;;;;;;;;;;;;-0.04;70.98;100295.67;1742003;82;23065;-72
2021/03/21 06:35:44;;;;;;;;;;;;;;;0.00;70.33;100288.63;1740083;82;20238;-72
2021/03/21 06:38:50;;;;;;;;;;;;;;;0.05;70.04;100290.59;1721030;82;20223;-72
2021/03/21 06:41:42;;;;;;;;;;;;;;;0.10;69.59;100283.94;1723317;82;20479;-72
2021/03/21 06:44:35;;;;;;;;;;;;;;;0.15;68.93;100280.70;1731261;82;20230;-72
2021/03/21 06:47:23;;;;;;;;;;;;;;;0.20;68.17;100281.39;1708109;82;20490;-71
2021/03/21 06:50:03;;;;;;;;;;;;;;;0.23;67.87;100278.20;1734081;81;20386;-73
2021/03/21 06:52:37;;;;;;;;;;;;;;;0.31;67.88;100279.67;1731934;82;20219;-71
2021/03/21 06:55:40;;;;;;;;;;;;;;;0.37;67.31;100277.66;1738728;82;20754;-72
2021/03/21 06:58:45;;;;;;;;;;;;;;;0.39;67.35;100268.08;1728171;82;20218;-72
2021/03/21 07:01:22;;;;;;;;;;;;;;;0.46;66.97;100272.11;1739375;82;22517;-71
2021/03/21 07:04:13;;;;;;;;;;;;;;;0.52;66.99;100266.67;1742447;82;20370;-73
2021/03/21 07:07:14;;;;;;;;;;;;;;;0.57;66.68;100269.08;1734443;82;20218;-71
2021/03/21 07:09:49;;;;;;;;;;;;;;;0.65;66.83;100267.48;1724651;82;20282;-73
2021/03/21 07:12:56;;;;;;;;;;;;;;;0.78;65.78;100264.34;1741703;82;20214;-72
2021/03/21 07:15:36;;;;;;;;;;;;;;;0.77;64.77;100255.27;1736027;82;22053;-73
2021/03/21 07:18:30;;;;;;;;;;;;;;;0.77;64.42;100248.35;1737469;82;20822;-72
2021/03/21 07:21:07;;;;;;;;;;;;;;;0.81;63.99;100245.16;1733359;81;20226;-72
2021/03/21 07:23:51;;;;;;;;;;;;;;;0.84;63.34;100238.52;1720446;82;20457;-72
2021/03/21 07:26:55;;;;;;;;;;;;;;;0.82;63.30;100236.45;1697071;82;20242;-72
2021/03/21 07:29:38;;;;;;;;;;;;;;;0.86;62.94;100240.14;1715662;82;23376;-74
2021/03/21 07:32:18;;;;;;;;;;;;;;;0.88;62.05;100231.00;1711540;83;21269;-72
2021/03/21 07:35:01;;;;;;;;;;;;;;;0.88;61.31;100231.00;1729696;82;20552;-72
2021/03/21 07:38:02;;;;;;;;;;;;;;;0.94;62.16;100225.98;1723279;81;20309;-70
2021/03/21 07:40:47;;;;;;;;;;;;;;;1.05;61.77;100224.61;1735362;81;20966;-73
2021/03/21 07:43:45;;;;;;;;;;;;;;;1.17;60.22;100222.42;1720149;82;22348;-71
2021/03/21 07:46:39;;;;;;;;;;;;;;;1.22;59.37;100225.19;1728429;82;21533;-76
2021/03/21 07:49:25;;;;;;;;;;;;;;;1.21;58.55;100222.20;1729530;81;20234;-77
2021/03/21 07:52:15;;;;;;;;;;;;;;;1.23;58.50;100215.17;1723992;81;21039;-76
2021/03/21 07:54:51;;;;;;;;;;;;;;;1.32;58.33;100214.77;1712999;82;20256;-76
2021/03/21 07:57:23;;;;;;;;;;;;;;;1.47;58.41;100217.63;1713100;82;23315;-77
2021/03/21 07:59:51;;;;;;;;;;;;;;;1.60;57.87;100218.30;1717253;82;20233;-73
2021/03/21 08:02:23;;;;;;;;;;;;;;;1.67;55.71;100209.30;1724615;81;20224;-74
2021/03/21 08:04:51;;;;;;;;;;;;;;;1.72;56.03;100207.32;1727880;82;20474;-74
2021/03/21 08:07:32;;;;;;;;;;;;;;;1.75;55.02;100202.45;1738629;82;20222;-75
2021/03/21 08:10:00;;;;;;;;;;;;;;;1.76;54.65;100200.70;1735202;82;22061;-71
2021/03/21 08:12:37;;;;;;;;;;;;;;;1.80;53.94;100203.07;1738952;81;20267;-76
2021/03/21 08:15:20;;;;;;;;;;;;;;;1.85;52.39;100197.67;1734820;82;20278;-73
2021/03/21 08:17:54;;;;;;;;;;;;;;;1.81;52.17;100190.44;1742047;82;20522;-75
2021/03/21 08:20:24;;;;;;;;;;;;;;;1.80;52.04;100185.30;1732288;82;20273;-74
2021/03/21 08:23:10;;;;;;;;;;;;;;;1.89;53.27;100184.42;1740593;82;23374;-74
2021/03/21 08:25:37;;;;;;;;;;;;;;;2.01;51.77;100190.34;1723046;82;20777;-77
2021/03/21 08:28:04;;;;;;;;;;;;;;;2.02;52.71;100171.66;1732486;82;20224;-76
2021/03/21 08:30:52;;;;;;;;;;;;;;;1.99;53.36;100189.58;1725835;81;20926;-80
2021/03/21 08:33:35;;;;;;;;;;;;;;;1.92;52.61;100187.33;1716788;82;20507;-76
2021/03/21 08:36:20;;;;;;;;;;;;;;;1.82;53.63;100168.69;1731639;82;21165;-76
2021/03/21 08:38:57;;;;;;;;;;;;;;;1.79;54.84;100177.11;1741178;82;20277;-78
2021/03/21 08:41:25;;;;;;;;;;;;;;;1.88;55.47;100175.38;1723809;82;20232;-76
2021/03/21 08:44:01;;;;;;;;;;;;;;;1.88;55.45;100172.77;1742559;82;21085;-76
2021/03/21 08:46:29;;;;;;;;;;;;;;;1.84;56.64;100167.34;1742664;82;20237;-74
2021/03/21 08:49:04;;;;;;;;;;;;;;;1.82;57.11;100164.78;1739545;81;21899;-76
2021/03/21 08:51:38;;;;;;;;;;;;;;;1.82;56.90;100170.45;1719135;80;20460;-73
2021/03/21 08:54:21;;;;;;;;;;;;;;;1.76;56.95;100162.94;1725756;82;20297;-74
2021/03/21 08:57:01;;;;;;;;;;;;;;;1.84;58.05;100159.52;1713192;82;20472;-74
2021/03/21 08:59:36;;;;;;;;;;;;;;;2.04;57.87;100155.98;1741795;82;20405;-74
2021/03/21 09:02:09;;;;;;;;;;;;;;;2.15;56.91;100149.79;1740640;82;22756;-74
2021/03/21 09:04:40;;;;;;;;;;;;;;;2.12;56.81;100159.03;1729101;81;20382;-75
2021/03/21 09:07:20;;;;;;;;;;;;;;;2.05;56.61;100148.08;1715183;81;20241;-74
2021/03/21 09:09:53;;;;;;;;;;;;;;;2.01;56.97;100151.27;1728134;83;20472;-73
2021/03/21 09:12:27;;;;;;;;;;;;;;;2.08;56.31;100145.32;1693551;82;20231;-74
2021/03/21 09:15:13;;;;;;;;;;;;;;;2.09;56.43;100131.84;1733280;81;22080;-74
2021/03/21 09:17:41;;;;;;;;;;;;;;;2.15;56.53;100129.78;1734150;82;20227;-73
2021/03/21 09:20:10;;;;;;;;;;;;;;;2.28;56.25;100121.73;1732240;81;20409;-76
2021/03/21 09:22:39;;;;;;;;;;;;;;;2.46;56.85;100126.97;1680857;82;20527;-76
2021/03/21 09:25:31;;;;;;;;;;;;;;;2.49;54.59;100121.59;1734259;82;20267;-75
2021/03/21 09:27:59;;;;;;;;;;;;;;;2.36;54.53;100109.64;1734367;82;22119;-74
2021/03/21 09:30:38;;;;;;;;;;;;;;;2.34;54.78;100104.13;1706928;82;20658;-72
2021/03/21 09:33:14;;;;;;;;;;;;;;;2.50;55.39;100106.33;1740201;81;20198;-73
2021/03/21 09:35:47;;;;;;;;;;;;;;;2.73;53.87;100107.33;1720546;82;20474;-72
2021/03/21 09:38:29;;;;;;;;;;;;;;;2.82;52.24;100107.31;1736659;82;20243;-71
2021/03/21 09:40:59;;;;;;;;;;;;;;;2.72;52.24;100099.59;1738169;82;22070;-71
2021/03/21 09:43:29;;;;;;;;;;;;;;;2.64;52.43;100097.83;1740725;81;21261;-70
2021/03/21 09:46:06;;;;;;;;;;;;;;;2.67;53.16;100096.35;1728070;82;20254;-70
2021/03/21 09:49:02;;;;;;;;;;;;;;;2.92;53.12;100103.30;1835895;76;20294;-74
2021/03/21 09:51:54;;;;;;;;;;;;;;;3.03;53.71;100111.41;1787767;79;20206;-72
2021/03/21 09:54:31;;;;;;;;;;;;;;;3.08;51.19;100095.03;1794855;79;21895;-73
2021/03/21 09:57:26;;;;;;;;;;;;;;;2.94;52.03;100096.70;1818071;79;21654;-72
2021/03/21 10:00:16;;;;;;;;;;;;;;;2.84;52.45;100093.27;1795117;79;20238;-73
2021/03/21 10:02:54;;;;;;;;;;;;;;;2.73;51.54;100087.77;1750472;79;21259;-73
2021/03/21 10:05:41;;;;;;;;;;;;;;;2.70;51.39;100084.45;1790427;79;20214;-73
2021/03/21 10:08:28;;;;;;;;;;;;;;;2.74;52.07;100075.10;1785722;79;21823;-73
2021/03/21 10:10:57;;;;;;;;;;;;;;;2.86;51.86;100078.83;1797011;79;20366;-78
2021/03/21 10:13:34;;;;;;;;;;;;;;;2.99;51.42;100074.67;1784928;79;20413;-77
2021/03/21 10:16:18;;;;;;;;;;;;;;;3.10;51.34;100070.19;1807648;79;21087;-78
2021/03/21 10:18:59;;;;;;;;;;;;;;;3.34;51.76;100064.94;1815259;79;20236;-78
2021/03/21 10:21:29;;;;;;;;;;;;;;;3.49;50.30;100059.81;1793732;79;22489;-76
2021/03/21 10:24:05;;;;;;;;;;;;;;;3.40;50.32;100055.47;1780181;79;20794;-75
2021/03/21 10:26:33;;;;;;;;;;;;;;;3.28;50.66;100052.23;1789882;79;20297;-75
2021/03/21 10:29:02;;;;;;;;;;;;;;;3.33;50.57;100062.41;1779824;79;20995;-74
2021/03/21 10:31:32;;;;;;;;;;;;;;;3.41;49.48;100040.65;1785608;79;20272;-75
2021/03/21 10:34:06;;;;;;;;;;;;;;;3.47;48.65;100048.59;1816860;78;22025;-76
2021/03/21 10:36:43;;;;;;;;;;;;;;;3.49;49.38;100030.63;1791491;79;20369;-81
2021/03/21 10:39:26;;;;;;;;;;;;;;;3.77;50.21;100040.84;1792643;79;20519;-76
2021/03/21 10:42:03;;;;;;;;;;;;;;;4.10;50.02;100029.74;1786225;79;21615;-75
2021/03/21 10:44:37;;;;;;;;;;;;;;;4.47;49.87;100018.43;1784725;79;20289;-77
2021/03/21 10:47:11;;;;;;;;;;;;;;;4.69;48.22;100017.50;1784564;79;22053;-77
2021/03/21 10:49:55;;;;;;;;;;;;;;;4.78;45.71;100013.48;1734382;82;20570;-78
2021/03/21 10:52:26;;;;;;;;;;;;;;;4.79;45.06;100002.08;1734430;82;20491;-77
2021/03/21 10:55:15;;;;;;;;;;;;;;;4.86;46.55;100004.70;1888680;76;20167;-75
2021/03/21 10:57:45;;;;;;;;;;;;;;;4.80;44.69;100005.91;1836086;77;20239;-76
2021/03/21 11:00:17;;;;;;;;;;;;;;;4.67;43.79;99998.45;1818059;79;22477;-75
2021/03/21 11:03:10;;;;;;;;;;;;;;;4.65;45.22;100005.55;1827338;77;20539;-75
2021/03/21 11:05:42;;;;;;;;;;;;;;;4.77;45.87;99991.72;1851493;77;20594;-75
2021/03/21 11:08:18;;;;;;;;;;;;;;;4.94;44.46;100005.08;1821525;77;20285;-76
2021/03/21 11:10:50;;;;;;;;;;;;;;;4.82;44.28;99990.11;1851300;77;20440;-75
2021/03/21 11:13:33;;;;;;;;;;;;;;;4.85;46.20;99987.33;1820196;77;21930;-76
2021/03/21 11:16:09;;;;;;;;;;;;;;;5.07;44.87;99977.66;1851354;77;20423;-75
2021/03/21 11:18:36;;;;;;;;;;;;;;;5.33;43.36;99974.70;1847845;77;20727;-76
2021/03/21 11:21:13;;;;;;;;;;;;;;;5.50;44.08;99964.42;1838654;77;21058;-77
2021/03/21 11:23:50;;;;;;;;;;;;;;;5.66;43.72;99969.88;1845627;76;20265;-78
2021/03/21 11:26:30;;;;;;;;;;;;;;;5.71;43.93;99970.44;1849654;77;22065;-78
2021/03/21 11:29:07;;;;;;;;;;;;;;;5.65;43.15;99959.04;1851364;77;21050;-77
2021/03/21 11:31:38;;;;;;;;;;;;;;;5.60;42.70;99948.03;1845876;77;20214;-78
2021/03/21 11:34:19;;;;;;;;;;;;;;;5.57;43.22;99950.00;1851808;77;20313;-78
2021/03/21 11:36:47;;;;;;;;;;;;;;;5.45;43.84;99946.41;1843741;77;20401;-78
2021/03/21 11:39:35;;;;;;;;;;;;;;;5.30;43.46;99942.14;1851425;77;21882;-77
2021/03/21 11:42:23;;;;;;;;;;;;;;;5.02;43.70;99944.38;1848291;77;20392;-77
2021/03/21 11:44:52;;;;;;;;;;;;;;;4.80;43.51;99945.73;1825578;77;20220;-77
2021/03/21 11:47:31;;;;;;;;;;;;;;;4.87;43.26;99925.27;1733986;81;21134;-78
2021/03/21 11:50:01;;;;;;;;;;;;;;;5.03;44.00;99943.47;1760103;81;20283;-77
2021/03/21 11:52:28;;;;;;;;;;;;;;;5.21;44.54;99918.73;1736741;81;22050;-79
2021/03/21 11:54:56;;;;;;;;;;;;;;;5.51;44.04;99926.84;1779395;79;20347;-77
2021/03/21 11:57:51;;;;;;;;;;;;;;;5.78;43.71;99907.13;1742364;80;20240;-78
2021/03/21 12:00:27;;;;;;;;;;;;;;;6.07;42.40;99919.13;1757483;81;21204;-77
2021/03/21 12:03:16;;;;;;;;;;;;;;;6.32;42.71;99894.70;1742210;81;20420;-76
2021/03/21 12:06:00;;;;;;;;;;;;;;;6.57;40.70;99917.45;1743496;81;22065;-78
2021/03/21 12:08:36;;;;;;;;;;;;;;;6.55;40.27;99910.14;1754594;81;20439;-78
2021/03/21 12:11:19;;;;;;;;;;;;;;;6.57;40.12;99891.21;1757354;81;20287;-77
2021/03/21 12:13:49;;;;;;;;;;;;;;;6.59;40.28;99887.53;1758003;81;20269;-73
2021/03/21 12:16:34;;;;;;;;;;;;;;;6.40;40.02;99881.89;1742774;81;20222;-72
2021/03/21 12:19:25;;;;;;;;;;;;;;;6.37;41.43;99879.50;1873775;76;20293;-72
2021/03/21 12:21:55;;;;;;;;;;;;;;;6.55;40.93;99882.59;1851914;77;20217;-73
2021/03/21 12:24:23;;;;;;;;;;;;;;;6.68;40.96;99874.70;1859033;77;21989;-74
2021/03/21 12:26:54;;;;;;;;;;;;;;;6.65;40.08;99883.61;1853485;76;21342;-73
2021/03/21 12:29:34;;;;;;;;;;;;;;;6.46;40.75;99874.05;1844389;77;20273;-72
2021/03/21 12:32:21;;;;;;;;;;;;;;;6.38;40.66;99867.22;1837576;77;21241;-71
2021/03/21 12:34:50;;;;;;;;;;;;;;;6.18;40.57;99861.58;1832900;77;20739;-72
2021/03/21 12:37:20;;;;;;;;;;;;;;;6.05;40.30;99867.28;1857810;77;21892;-72
2021/03/21 12:39:53;;;;;;;;;;;;;;;6.03;41.11;99865.25;1842775;77;20481;-72
2021/03/21 12:42:36;;;;;;;;;;;;;;;5.98;41.01;99863.39;1818094;77;20558;-72
2021/03/21 12:45:10;;;;;;;;;;;;;;;5.80;41.45;99860.23;1826216;76;20350;-72
2021/03/21 12:47:39;;;;;;;;;;;;;;;5.70;42.89;99853.95;1817265;77;20216;-79
2021/03/21 12:50:20;;;;;;;;;;;;;;;5.95;42.00;99849.20;1828575;77;22755;-77
2021/03/21 12:52:47;;;;;;;;;;;;;;;6.28;42.43;99844.25;1849789;76;20848;-78
2021/03/21 12:55:15;;;;;;;;;;;;;;;6.70;40.73;99845.25;1816523;79;20232;-77
2021/03/21 12:57:43;;;;;;;;;;;;;;;6.83;39.92;99838.99;1831797;77;21499;-78
2021/03/21 13:00:20;;;;;;;;;;;;;;;6.74;40.20;99836.19;1849581;77;20237;-75
2021/03/21 13:02:48;;;;;;;;;;;;;;;6.64;40.57;99824.68;1789586;77;21835;-73
2021/03/21 13:05:22;;;;;;;;;;;;;;;6.74;40.23;99840.13;1826561;76;20364;-74
2021/03/21 13:07:50;;;;;;;;;;;;;;;6.75;38.48;99824.27;1822385;76;20214;-74
2021/03/21 13:10:18;;;;;;;;;;;;;;;6.50;39.17;99817.33;1831844;76;20212;-75
2021/03/21 13:12:45;;;;;;;;;;;;;;;6.16;40.15;99824.11;1838213;77;21010;-76
2021/03/21 13:15:15;;;;;;;;;;;;;;;5.81;40.72;99819.15;1850087;77;20550;-74
2021/03/21 13:17:43;;;;;;;;;;;;;;;5.77;42.93;99811.11;1842528;76;20288;-74
2021/03/21 13:20:14;;;;;;;;;;;;;;;6.03;41.06;99808.88;1849455;77;20264;-74
2021/03/21 13:22:41;;;;;;;;;;;;;;;6.01;41.96;99806.84;1846899;77;20269;-74
2021/03/21 13:25:10;;;;;;;;;;;;;;;5.89;41.30;99806.36;1848115;77;20613;-75
2021/03/21 13:27:40;;;;;;;;;;;;;;;5.71;41.73;99802.73;1847913;77;22919;-74
2021/03/21 13:30:15;;;;;;;;;;;;;;;5.83;42.62;99802.84;1837506;76;20446;-74
2021/03/21 13:32:46;;;;;;;;;;;;;;;6.14;42.50;99785.84;1833058;77;20231;-75
2021/03/21 13:35:14;;;;;;;;;;;;;;;6.52;42.12;99804.10;1832811;76;20523;-73